Archival Weather

Chicago O'Hare International

Chicago, Illinois (KORD)

Report from: Tuesday, September 19, 2023 5:51 AM CDT
Current time: Wednesday, May 29, 2024 4:14 AM CDT

Current weather – Weather history – Daily summaries
Weather forecast

Temperature15.6°C (60.1°F)
Dew point11.1°C (52.0°F)
Winds 9 kts (4.6 m/s, 10.4 mph) South (190°)
Visibility10 mi. (16.1 km)
Clouds Ceiling: Broken clouds 10,000 ft. (3,048 m)
Overcast 25,000 ft. (7,620 m)
Altimeter30.01 in.Hg (1016 mB)
PrecipitiationTrace
Precip. events Rain began 10:12 AM
Rain ended 10:30 AM
Relative humidity75 %
Density altitude161 ft. (49 m)
Sea-level pressure101.6 kPa (1016 mB, 30.01 in.Hg)
Remarks Automated weather observing station with precipitation discriminator
Flight conditions Visual Meteorological Conditions
Raw dataKORD 191051Z 19009KT 10SM BKN100 OVC250 16/11 A3001 RMK AO2 RAB12E30 SLP161 P0000 T01560111
An error has occurred. This application may no longer respond until reloaded. Reload 🗙